Airfield :
LOGIN :

Register | Disclaimer

   EN    FR    IT 

 










Legend :    VFR   Marginal VFR   IFR   Intensive IFR   Very Intensive IFR
Visi :
Ceiling :
>= 8 km
>= 3000ft
5 to 8 km
1000 to 3000 ft
1500m to 5 km
500 to 1000 ft
800 to 1500m
200 to 500 ft
< 800m
< 200 ft
Symbols :   Thunderstorms  Fog  Heavy snow  Heavy precipitations  Wind > 20 kt
SIGMETs :     Misc.  Thunderstorms  Icing  Turbulence  Mountain Waves  Volcanic Ashes






- Airport Elevation : 117 ft
- IATA code : NWI


EGSH - Norwich

CURRENT METAR :
  • 200650Z 20005KT 160V230 9999 FEW012 14/10 Q1018 TEMPO RA

EXPIRED METARs :
  • 200620Z 19005KT 140V230 9999 FEW012 14/11 Q1018 NOSIG
  • 200550Z 20007KT 160V230 9000 NSC 14/11 Q1018
  • 200520Z 18005KT 140V240 7000 NSC 13/11 Q1018 TEMPO 3000 BR
  • 200450Z 15004KT 120V200 6000 NSC 13/12 Q1018 TEMPO 2000 BR
  • 200420Z AUTO 16004KT 110V220 5000 HZ FEW004/// 13/12 Q1018

TAF TAF EGSH
Valid from the 20 at 06:00 until the 20 at 15:00 UTC


200453Z 2006/2015 20005KT 9999 SCT040
PROB30 2006/2007 3000 BR
TEMPO 2007/2013 7000 -RA BKN014
BECMG 2009/2012 26010KT
PROB30
TEMPO 2010/2013 4000 RA BKN008
PROB30
TEMPO 2013/2015 BKN010
ATIS : +44 1603 420 640



MET'MAP, your aeronautical weather chart ! - Copyright ORBIFLY December 2007 - Disclaimer

ORBIFLY MET'MAP TEAM :

Programming & Development : Alexandra Zaïnal
Original concept : Baudouin d'Aumeries
Technical & hardware support : Manuel Goepfert
Assistance : Marc-Olivier Méhu

Contact : metmap@orbifly.com




SOURCES & CREDITS :

   NOAA